sensor_id;sensor_type;location;lat;lon;timestamp;P1;durP1;ratioP1;P2;durP2;ratioP2
16308;SDS011;8263;48.880;9.276;2023-03-14T00:00:50;119.60;;;111.38;;
16308;SDS011;8263;48.880;9.276;2023-03-14T00:03:16;118.38;;;110.47;;
16308;SDS011;8263;48.880;9.276;2023-03-14T00:05:42;119.47;;;111.47;;
16308;SDS011;8263;48.880;9.276;2023-03-14T00:08:10;121.20;;;113.05;;
16308;SDS011;8263;48.880;9.276;2023-03-14T00:10:37;119.72;;;111.72;;
16308;SDS011;8263;48.880;9.276;2023-03-14T00:13:04;119.65;;;111.63;;
16308;SDS011;8263;48.880;9.276;2023-03-14T00:15:31;118.78;;;110.82;;
16308;SDS011;8263;48.880;9.276;2023-03-14T00:17:58;120.90;;;112.80;;
16308;SDS011;8263;48.880;9.276;2023-03-14T00:20:24;120.38;;;112.28;;
16308;SDS011;8263;48.880;9.276;2023-03-14T00:22:51;118.95;;;110.95;;
16308;SDS011;8263;48.880;9.276;2023-03-14T00:25:19;119.63;;;111.63;;
16308;SDS011;8263;48.880;9.276;2023-03-14T00:27:46;121.05;;;112.85;;
16308;SDS011;8263;48.880;9.276;2023-03-14T00:30:12;119.45;;;111.45;;
16308;SDS011;8263;48.880;9.276;2023-03-14T00:32:39;121.80;;;113.60;;
16308;SDS011;8263;48.880;9.276;2023-03-14T00:35:06;122.55;;;114.25;;
16308;SDS011;8263;48.880;9.276;2023-03-14T00:37:32;122.47;;;114.20;;
16308;SDS011;8263;48.880;9.276;2023-03-14T00:39:59;122.53;;;114.28;;
16308;SDS011;8263;48.880;9.276;2023-03-14T00:42:26;123.03;;;114.72;;
16308;SDS011;8263;48.880;9.276;2023-03-14T00:44:53;120.20;;;112.10;;
16308;SDS011;8263;48.880;9.276;2023-03-14T00:47:19;119.13;;;111.10;;
16308;SDS011;8263;48.880;9.276;2023-03-14T00:49:46;119.00;;;111.00;;
16308;SDS011;8263;48.880;9.276;2023-03-14T00:52:12;122.38;;;114.10;;
16308;SDS011;8263;48.880;9.276;2023-03-14T00:54:39;121.78;;;113.57;;
16308;SDS011;8263;48.880;9.276;2023-03-14T00:57:05;121.47;;;113.28;;
16308;SDS011;8263;48.880;9.276;2023-03-14T00:59:33;120.70;;;112.60;;
16308;SDS011;8263;48.880;9.276;2023-03-14T01:02:00;122.65;;;114.35;;
16308;SDS011;8263;48.880;9.276;2023-03-14T01:04:27;120.88;;;112.70;;
16308;SDS011;8263;48.880;9.276;2023-03-14T01:06:55;122.50;;;114.22;;
16308;SDS011;8263;48.880;9.276;2023-03-14T01:09:21;121.72;;;113.53;;
16308;SDS011;8263;48.880;9.276;2023-03-14T01:11:48;123.30;;;114.90;;
16308;SDS011;8263;48.880;9.276;2023-03-14T01:14:14;121.38;;;113.18;;
16308;SDS011;8263;48.880;9.276;2023-03-14T01:16:42;120.50;;;112.40;;
16308;SDS011;8263;48.880;9.276;2023-03-14T01:19:09;121.35;;;113.15;;
16308;SDS011;8263;48.880;9.276;2023-03-14T01:21:35;123.47;;;115.10;;
16308;SDS011;8263;48.880;9.276;2023-03-14T01:24:03;122.38;;;114.15;;
16308;SDS011;8263;48.880;9.276;2023-03-14T01:26:30;121.20;;;113.05;;
16308;SDS011;8263;48.880;9.276;2023-03-14T01:28:57;122.50;;;114.22;;
16308;SDS011;8263;48.880;9.276;2023-03-14T01:31:24;122.90;;;114.60;;
16308;SDS011;8263;48.880;9.276;2023-03-14T01:33:52;120.57;;;112.47;;
16308;SDS011;8263;48.880;9.276;2023-03-14T01:36:18;122.43;;;114.15;;
16308;SDS011;8263;48.880;9.276;2023-03-14T01:38:45;119.53;;;111.53;;
16308;SDS011;8263;48.880;9.276;2023-03-14T01:41:13;122.47;;;114.18;;
16308;SDS011;8263;48.880;9.276;2023-03-14T01:43:39;119.50;;;111.50;;
16308;SDS011;8263;48.880;9.276;2023-03-14T01:46:14;121.80;;;113.60;;
16308;SDS011;8263;48.880;9.276;2023-03-14T01:48:44;122.78;;;114.47;;
16308;SDS011;8263;48.880;9.276;2023-03-14T01:51:15;121.70;;;113.50;;
16308;SDS011;8263;48.880;9.276;2023-03-14T01:53:43;121.85;;;113.65;;
16308;SDS011;8263;48.880;9.276;2023-03-14T01:56:11;123.68;;;115.28;;
16308;SDS011;8263;48.880;9.276;2023-03-14T01:58:38;120.13;;;112.03;;
16308;SDS011;8263;48.880;9.276;2023-03-14T02:01:05;122.55;;;114.25;;
16308;SDS011;8263;48.880;9.276;2023-03-14T02:03:34;121.78;;;113.57;;
16308;SDS011;8263;48.880;9.276;2023-03-14T02:06:03;121.10;;;112.93;;
16308;SDS011;8263;48.880;9.276;2023-03-14T02:08:32;122.75;;;114.45;;
16308;SDS011;8263;48.880;9.276;2023-03-14T02:10:59;122.78;;;114.47;;
16308;SDS011;8263;48.880;9.276;2023-03-14T02:13:25;122.45;;;114.18;;
16308;SDS011;8263;48.880;9.276;2023-03-14T02:15:52;121.85;;;113.57;;
16308;SDS011;8263;48.880;9.276;2023-03-14T02:18:19;121.68;;;113.47;;
16308;SDS011;8263;48.880;9.276;2023-03-14T02:20:47;122.70;;;114.40;;
16308;SDS011;8263;48.880;9.276;2023-03-14T02:23:18;123.50;;;115.13;;
16308;SDS011;8263;48.880;9.276;2023-03-14T02:25:50;123.15;;;114.85;;
16308;SDS011;8263;48.880;9.276;2023-03-14T02:28:19;124.20;;;115.78;;
16308;SDS011;8263;48.880;9.276;2023-03-14T02:30:46;121.95;;;113.75;;
16308;SDS011;8263;48.880;9.276;2023-03-14T02:33:13;123.88;;;115.47;;
16308;SDS011;8263;48.880;9.276;2023-03-14T02:35:42;124.28;;;115.82;;
16308;SDS011;8263;48.880;9.276;2023-03-14T02:38:10;122.70;;;114.40;;
16308;SDS011;8263;48.880;9.276;2023-03-14T02:40:39;122.20;;;113.95;;
16308;SDS011;8263;48.880;9.276;2023-03-14T02:43:06;123.40;;;115.03;;
16308;SDS011;8263;48.880;9.276;2023-03-14T02:45:35;122.28;;;114.00;;
16308;SDS011;8263;48.880;9.276;2023-03-14T02:48:03;123.40;;;115.03;;
16308;SDS011;8263;48.880;9.276;2023-03-14T02:50:30;121.25;;;113.05;;
16308;SDS011;8263;48.880;9.276;2023-03-14T02:52:59;122.13;;;113.85;;
16308;SDS011;8263;48.880;9.276;2023-03-14T02:55:25;123.18;;;114.82;;
16308;SDS011;8263;48.880;9.276;2023-03-14T02:57:51;122.38;;;114.07;;
16308;SDS011;8263;48.880;9.276;2023-03-14T03:00:18;122.82;;;114.53;;
16308;SDS011;8263;48.880;9.276;2023-03-14T03:02:46;124.95;;;116.45;;
16308;SDS011;8263;48.880;9.276;2023-03-14T03:05:13;124.40;;;115.95;;
16308;SDS011;8263;48.880;9.276;2023-03-14T03:07:39;123.50;;;115.13;;
16308;SDS011;8263;48.880;9.276;2023-03-14T03:10:06;122.97;;;114.47;;
16308;SDS011;8263;48.880;9.276;2023-03-14T03:12:33;123.65;;;115.25;;
16308;SDS011;8263;48.880;9.276;2023-03-14T03:14:59;123.38;;;114.97;;
16308;SDS011;8263;48.880;9.276;2023-03-14T03:17:26;122.55;;;114.25;;
16308;SDS011;8263;48.880;9.276;2023-03-14T03:19:54;124.55;;;116.05;;
16308;SDS011;8263;48.880;9.276;2023-03-14T03:22:20;124.53;;;116.07;;
16308;SDS011;8263;48.880;9.276;2023-03-14T03:24:46;122.05;;;113.82;;
16308;SDS011;8263;48.880;9.276;2023-03-14T03:27:13;124.30;;;115.85;;
16308;SDS011;8263;48.880;9.276;2023-03-14T03:29:39;124.88;;;116.38;;
16308;SDS011;8263;48.880;9.276;2023-03-14T03:32:06;122.72;;;114.43;;
16308;SDS011;8263;48.880;9.276;2023-03-14T03:34:32;122.68;;;114.38;;
16308;SDS011;8263;48.880;9.276;2023-03-14T03:37:01;121.85;;;113.60;;
16308;SDS011;8263;48.880;9.276;2023-03-14T03:39:28;122.75;;;114.45;;
16308;SDS011;8263;48.880;9.276;2023-03-14T03:41:54;125.47;;;116.97;;
16308;SDS011;8263;48.880;9.276;2023-03-14T03:44:20;123.18;;;114.82;;
16308;SDS011;8263;48.880;9.276;2023-03-14T03:46:47;123.22;;;114.85;;
16308;SDS011;8263;48.880;9.276;2023-03-14T03:49:13;122.05;;;113.78;;
16308;SDS011;8263;48.880;9.276;2023-03-14T03:51:40;124.97;;;116.47;;
16308;SDS011;8263;48.880;9.276;2023-03-14T03:54:08;124.25;;;115.78;;
16308;SDS011;8263;48.880;9.276;2023-03-14T03:56:34;125.05;;;116.55;;
16308;SDS011;8263;48.880;9.276;2023-03-14T03:59:01;124.03;;;115.60;;
16308;SDS011;8263;48.880;9.276;2023-03-14T04:01:27;123.18;;;114.78;;
16308;SDS011;8263;48.880;9.276;2023-03-14T04:03:54;123.05;;;114.70;;
16308;SDS011;8263;48.880;9.276;2023-03-14T04:06:21;124.47;;;116.00;;
16308;SDS011;8263;48.880;9.276;2023-03-14T04:08:47;124.60;;;116.10;;
16308;SDS011;8263;48.880;9.276;2023-03-14T04:11:15;125.53;;;116.93;;
16308;SDS011;8263;48.880;9.276;2023-03-14T04:13:41;121.25;;;113.07;;
16308;SDS011;8263;48.880;9.276;2023-03-14T04:16:09;125.60;;;117.00;;
16308;SDS011;8263;48.880;9.276;2023-03-14T04:18:39;122.47;;;114.15;;
16308;SDS011;8263;48.880;9.276;2023-03-14T04:21:06;124.57;;;116.07;;
16308;SDS011;8263;48.880;9.276;2023-03-14T04:23:32;125.07;;;116.57;;
16308;SDS011;8263;48.880;9.276;2023-03-14T04:25:59;124.57;;;116.10;;
16308;SDS011;8263;48.880;9.276;2023-03-14T04:28:27;123.90;;;115.47;;
16308;SDS011;8263;48.880;9.276;2023-03-14T04:30:53;124.82;;;116.32;;
16308;SDS011;8263;48.880;9.276;2023-03-14T04:33:20;124.80;;;116.07;;
16308;SDS011;8263;48.880;9.276;2023-03-14T04:35:46;125.05;;;116.55;;
16308;SDS011;8263;48.880;9.276;2023-03-14T04:38:15;125.40;;;116.85;;
16308;SDS011;8263;48.880;9.276;2023-03-14T04:40:42;122.35;;;114.03;;
16308;SDS011;8263;48.880;9.276;2023-03-14T04:43:09;124.82;;;116.32;;
16308;SDS011;8263;48.880;9.276;2023-03-14T04:45:39;124.57;;;116.07;;
16308;SDS011;8263;48.880;9.276;2023-03-14T04:48:08;125.93;;;117.32;;
16308;SDS011;8263;48.880;9.276;2023-03-14T04:50:35;124.30;;;115.78;;
16308;SDS011;8263;48.880;9.276;2023-03-14T04:53:01;125.03;;;116.50;;
16308;SDS011;8263;48.880;9.276;2023-03-14T04:55:28;126.30;;;117.70;;
16308;SDS011;8263;48.880;9.276;2023-03-14T04:57:54;126.32;;;117.72;;
16308;SDS011;8263;48.880;9.276;2023-03-14T05:00:21;124.85;;;116.35;;
16308;SDS011;8263;48.880;9.276;2023-03-14T05:02:48;124.43;;;115.93;;
16308;SDS011;8263;48.880;9.276;2023-03-14T05:05:15;125.22;;;116.70;;
16308;SDS011;8263;48.880;9.276;2023-03-14T05:07:41;124.88;;;116.38;;
16308;SDS011;8263;48.880;9.276;2023-03-14T05:10:09;126.50;;;117.85;;
16308;SDS011;8263;48.880;9.276;2023-03-14T05:12:35;126.05;;;117.45;;
16308;SDS011;8263;48.880;9.276;2023-03-14T05:15:02;122.03;;;113.72;;
16308;SDS011;8263;48.880;9.276;2023-03-14T05:17:29;125.82;;;117.22;;
16308;SDS011;8263;48.880;9.276;2023-03-14T05:19:57;123.10;;;114.65;;
16308;SDS011;8263;48.880;9.276;2023-03-14T05:22:23;126.53;;;117.90;;
16308;SDS011;8263;48.880;9.276;2023-03-14T05:24:50;125.88;;;117.28;;
16308;SDS011;8263;48.880;9.276;2023-03-14T05:27:16;124.18;;;115.70;;
16308;SDS011;8263;48.880;9.276;2023-03-14T05:29:43;126.25;;;117.65;;
16308;SDS011;8263;48.880;9.276;2023-03-14T05:32:09;126.65;;;117.95;;
16308;SDS011;8263;48.880;9.276;2023-03-14T05:34:37;126.18;;;117.57;;
16308;SDS011;8263;48.880;9.276;2023-03-14T05:37:05;125.38;;;116.80;;
16308;SDS011;8263;48.880;9.276;2023-03-14T05:39:32;125.93;;;117.32;;
16308;SDS011;8263;48.880;9.276;2023-03-14T05:41:58;125.82;;;116.95;;
16308;SDS011;8263;48.880;9.276;2023-03-14T05:44:25;124.43;;;115.93;;
16308;SDS011;8263;48.880;9.276;2023-03-14T05:46:51;126.80;;;117.97;;
16308;SDS011;8263;48.880;9.276;2023-03-14T05:49:17;126.45;;;117.75;;
16308;SDS011;8263;48.880;9.276;2023-03-14T05:51:44;127.18;;;118.47;;
16308;SDS011;8263;48.880;9.276;2023-03-14T05:54:13;125.63;;;117.03;;
16308;SDS011;8263;48.880;9.276;2023-03-14T05:56:39;127.13;;;118.43;;
16308;SDS011;8263;48.880;9.276;2023-03-14T05:59:06;128.35;;;119.55;;
16308;SDS011;8263;48.880;9.276;2023-03-14T06:01:34;127.53;;;118.72;;
16308;SDS011;8263;48.880;9.276;2023-03-14T06:04:01;128.23;;;119.43;;
16308;SDS011;8263;48.880;9.276;2023-03-14T06:06:29;126.57;;;117.78;;
16308;SDS011;8263;48.880;9.276;2023-03-14T06:08:55;125.75;;;117.15;;
16308;SDS011;8263;48.880;9.276;2023-03-14T06:11:23;127.00;;;118.13;;
16308;SDS011;8263;48.880;9.276;2023-03-14T06:13:50;124.50;;;116.00;;
16308;SDS011;8263;48.880;9.276;2023-03-14T06:16:16;127.40;;;118.68;;
16308;SDS011;8263;48.880;9.276;2023-03-14T06:18:43;126.30;;;117.65;;
16308;SDS011;8263;48.880;9.276;2023-03-14T06:21:11;127.80;;;119.00;;
16308;SDS011;8263;48.880;9.276;2023-03-14T06:23:38;127.63;;;118.82;;
16308;SDS011;8263;48.880;9.276;2023-03-14T06:26:04;127.20;;;118.47;;
16308;SDS011;8263;48.880;9.276;2023-03-14T06:28:32;125.22;;;116.68;;
16308;SDS011;8263;48.880;9.276;2023-03-14T06:30:59;128.23;;;119.25;;
16308;SDS011;8263;48.880;9.276;2023-03-14T06:33:25;127.93;;;119.13;;
16308;SDS011;8263;48.880;9.276;2023-03-14T06:35:52;127.90;;;119.10;;
16308;SDS011;8263;48.880;9.276;2023-03-14T06:38:18;123.85;;;115.43;;
16308;SDS011;8263;48.880;9.276;2023-03-14T06:40:45;126.25;;;117.38;;
16308;SDS011;8263;48.880;9.276;2023-03-14T06:43:11;127.65;;;118.85;;
16308;SDS011;8263;48.880;9.276;2023-03-14T06:45:39;127.13;;;118.43;;
16308;SDS011;8263;48.880;9.276;2023-03-14T06:48:05;126.47;;;117.80;;
16308;SDS011;8263;48.880;9.276;2023-03-14T06:50:33;126.95;;;118.25;;
16308;SDS011;8263;48.880;9.276;2023-03-14T06:52:59;126.97;;;118.28;;
16308;SDS011;8263;48.880;9.276;2023-03-14T06:55:26;125.75;;;117.15;;
16308;SDS011;8263;48.880;9.276;2023-03-14T06:57:52;127.32;;;118.57;;
16308;SDS011;8263;48.880;9.276;2023-03-14T07:00:19;128.18;;;119.38;;
16308;SDS011;8263;48.880;9.276;2023-03-14T07:02:47;124.82;;;116.30;;
16308;SDS011;8263;48.880;9.276;2023-03-14T07:05:13;126.55;;;117.85;;
16308;SDS011;8263;48.880;9.276;2023-03-14T07:07:40;125.78;;;117.18;;
16308;SDS011;8263;48.880;9.276;2023-03-14T07:10:07;126.40;;;117.70;;
16308;SDS011;8263;48.880;9.276;2023-03-14T07:12:34;126.47;;;117.72;;
16308;SDS011;8263;48.880;9.276;2023-03-14T07:15:00;126.18;;;117.50;;
16308;SDS011;8263;48.880;9.276;2023-03-14T07:17:27;125.40;;;116.80;;
16308;SDS011;8263;48.880;9.276;2023-03-14T07:19:55;126.13;;;117.47;;
16308;SDS011;8263;48.880;9.276;2023-03-14T07:22:21;127.70;;;118.90;;
16308;SDS011;8263;48.880;9.276;2023-03-14T07:24:47;125.43;;;116.82;;
16308;SDS011;8263;48.880;9.276;2023-03-14T07:27:14;126.38;;;117.68;;
16308;SDS011;8263;48.880;9.276;2023-03-14T07:29:40;126.93;;;118.22;;
16308;SDS011;8263;48.880;9.276;2023-03-14T07:32:07;126.70;;;117.80;;
16308;SDS011;8263;48.880;9.276;2023-03-14T07:34:34;126.70;;;118.00;;
16308;SDS011;8263;48.880;9.276;2023-03-14T07:37:03;128.27;;;119.45;;
16308;SDS011;8263;48.880;9.276;2023-03-14T07:39:30;127.43;;;118.63;;
16308;SDS011;8263;48.880;9.276;2023-03-14T07:41:56;124.80;;;116.20;;
16308;SDS011;8263;48.880;9.276;2023-03-14T07:44:23;128.23;;;119.43;;
16308;SDS011;8263;48.880;9.276;2023-03-14T07:46:49;124.45;;;115.95;;
16308;SDS011;8263;48.880;9.276;2023-03-14T07:49:16;125.18;;;116.63;;
16308;SDS011;8263;48.880;9.276;2023-03-14T07:51:42;126.32;;;117.63;;
16308;SDS011;8263;48.880;9.276;2023-03-14T07:54:10;126.32;;;117.60;;
16308;SDS011;8263;48.880;9.276;2023-03-14T07:56:36;124.95;;;116.38;;
16308;SDS011;8263;48.880;9.276;2023-03-14T07:59:03;124.47;;;115.97;;
16308;SDS011;8263;48.880;9.276;2023-03-14T08:01:30;123.10;;;114.70;;
16308;SDS011;8263;48.880;9.276;2023-03-14T08:03:56;128.25;;;119.45;;
16308;SDS011;8263;48.880;9.276;2023-03-14T08:06:23;126.45;;;117.80;;
16308;SDS011;8263;48.880;9.276;2023-03-14T08:08:49;125.20;;;116.63;;
16308;SDS011;8263;48.880;9.276;2023-03-14T08:11:17;124.63;;;116.13;;
16308;SDS011;8263;48.880;9.276;2023-03-14T08:13:43;126.50;;;117.80;;
16308;SDS011;8263;48.880;9.276;2023-03-14T08:16:14;125.47;;;116.90;;
16308;SDS011;8263;48.880;9.276;2023-03-14T08:18:41;127.15;;;118.45;;
16308;SDS011;8263;48.880;9.276;2023-03-14T08:21:07;125.70;;;117.10;;
16308;SDS011;8263;48.880;9.276;2023-03-14T08:23:33;125.63;;;117.03;;
16308;SDS011;8263;48.880;9.276;2023-03-14T08:26:00;125.18;;;116.68;;
16308;SDS011;8263;48.880;9.276;2023-03-14T08:28:28;125.05;;;116.55;;
16308;SDS011;8263;48.880;9.276;2023-03-14T08:30:57;123.50;;;115.10;;
16308;SDS011;8263;48.880;9.276;2023-03-14T08:33:23;125.30;;;116.78;;
16308;SDS011;8263;48.880;9.276;2023-03-14T08:35:51;125.68;;;117.13;;
16308;SDS011;8263;48.880;9.276;2023-03-14T08:38:17;124.68;;;116.18;;
16308;SDS011;8263;48.880;9.276;2023-03-14T08:40:44;122.85;;;114.55;;
16308;SDS011;8263;48.880;9.276;2023-03-14T08:43:10;124.15;;;115.75;;
16308;SDS011;8263;48.880;9.276;2023-03-14T08:45:38;123.03;;;114.72;;
16308;SDS011;8263;48.880;9.276;2023-03-14T08:48:05;122.13;;;113.85;;
16308;SDS011;8263;48.880;9.276;2023-03-14T08:50:31;123.43;;;115.07;;
16308;SDS011;8263;48.880;9.276;2023-03-14T08:52:58;123.07;;;114.78;;
16308;SDS011;8263;48.880;9.276;2023-03-14T08:55:25;122.72;;;114.43;;
16308;SDS011;8263;48.880;9.276;2023-03-14T08:57:52;123.22;;;114.90;;
16308;SDS011;8263;48.880;9.276;2023-03-14T09:00:19;122.75;;;114.45;;
16308;SDS011;8263;48.880;9.276;2023-03-14T09:02:47;124.88;;;116.38;;
16308;SDS011;8263;48.880;9.276;2023-03-14T09:05:14;123.03;;;114.72;;
16308;SDS011;8263;48.880;9.276;2023-03-14T09:07:41;122.30;;;114.05;;
16308;SDS011;8263;48.880;9.276;2023-03-14T09:10:07;121.28;;;113.07;;
16308;SDS011;8263;48.880;9.276;2023-03-14T09:12:35;120.55;;;112.45;;
16308;SDS011;8263;48.880;9.276;2023-03-14T09:15:01;123.78;;;115.38;;
16308;SDS011;8263;48.880;9.276;2023-03-14T09:17:28;122.28;;;114.05;;
16308;SDS011;8263;48.880;9.276;2023-03-14T09:19:56;122.05;;;113.85;;
16308;SDS011;8263;48.880;9.276;2023-03-14T09:22:23;121.10;;;112.95;;
16308;SDS011;8263;48.880;9.276;2023-03-14T09:24:49;121.63;;;113.43;;
16308;SDS011;8263;48.880;9.276;2023-03-14T09:27:16;121.95;;;113.75;;
16308;SDS011;8263;48.880;9.276;2023-03-14T09:29:42;122.38;;;114.15;;
16308;SDS011;8263;48.880;9.276;2023-03-14T09:32:09;118.20;;;110.30;;
16308;SDS011;8263;48.880;9.276;2023-03-14T09:34:35;119.75;;;111.57;;
16308;SDS011;8263;48.880;9.276;2023-03-14T09:37:03;122.72;;;114.45;;
16308;SDS011;8263;48.880;9.276;2023-03-14T09:39:30;119.45;;;111.45;;
16308;SDS011;8263;48.880;9.276;2023-03-14T09:41:56;120.00;;;111.93;;
16308;SDS011;8263;48.880;9.276;2023-03-14T09:44:25;119.55;;;111.55;;
16308;SDS011;8263;48.880;9.276;2023-03-14T09:46:53;120.60;;;112.50;;
16308;SDS011;8263;48.880;9.276;2023-03-14T09:49:21;118.80;;;110.88;;
16308;SDS011;8263;48.880;9.276;2023-03-14T09:51:51;119.85;;;111.80;;
16308;SDS011;8263;48.880;9.276;2023-03-14T09:54:26;121.78;;;113.57;;
16308;SDS011;8263;48.880;9.276;2023-03-14T09:56:55;123.50;;;115.00;;
16308;SDS011;8263;48.880;9.276;2023-03-14T09:59:22;119.55;;;111.55;;
16308;SDS011;8263;48.880;9.276;2023-03-14T10:01:48;119.85;;;111.85;;
16308;SDS011;8263;48.880;9.276;2023-03-14T10:04:15;120.95;;;112.85;;
16308;SDS011;8263;48.880;9.276;2023-03-14T10:06:45;121.13;;;113.00;;
16308;SDS011;8263;48.880;9.276;2023-03-14T10:09:13;120.38;;;112.28;;
16308;SDS011;8263;48.880;9.276;2023-03-14T10:11:45;118.15;;;110.25;;
16308;SDS011;8263;48.880;9.276;2023-03-14T10:14:11;119.30;;;111.30;;
16308;SDS011;8263;48.880;9.276;2023-03-14T10:16:40;120.25;;;112.15;;
16308;SDS011;8263;48.880;9.276;2023-03-14T10:19:09;119.60;;;111.60;;
16308;SDS011;8263;48.880;9.276;2023-03-14T10:21:36;121.00;;;112.88;;
16308;SDS011;8263;48.880;9.276;2023-03-14T10:24:07;119.05;;;111.05;;
16308;SDS011;8263;48.880;9.276;2023-03-14T10:26:34;119.22;;;111.22;;
16308;SDS011;8263;48.880;9.276;2023-03-14T10:29:02;119.00;;;111.03;;
16308;SDS011;8263;48.880;9.276;2023-03-14T10:31:29;118.05;;;110.15;;
16308;SDS011;8263;48.880;9.276;2023-03-14T10:34:14;119.03;;;111.05;;
16308;SDS011;8263;48.880;9.276;2023-03-14T10:36:41;117.72;;;109.90;;
16308;SDS011;8263;48.880;9.276;2023-03-14T10:39:21;119.00;;;111.07;;
16308;SDS011;8263;48.880;9.276;2023-03-14T10:41:48;118.80;;;110.88;;
16308;SDS011;8263;48.880;9.276;2023-03-14T10:44:17;118.10;;;110.22;;
16308;SDS011;8263;48.880;9.276;2023-03-14T10:46:45;117.22;;;109.32;;
16308;SDS011;8263;48.880;9.276;2023-03-14T10:49:22;118.85;;;110.95;;
16308;SDS011;8263;48.880;9.276;2023-03-14T10:51:49;115.38;;;107.75;;
16308;SDS011;8263;48.880;9.276;2023-03-14T10:54:19;116.72;;;108.93;;
16308;SDS011;8263;48.880;9.276;2023-03-14T10:56:46;117.75;;;109.95;;
16308;SDS011;8263;48.880;9.276;2023-03-14T10:59:22;115.70;;;107.75;;
16308;SDS011;8263;48.880;9.276;2023-03-14T11:01:51;117.20;;;109.32;;
16308;SDS011;8263;48.880;9.276;2023-03-14T11:04:22;116.30;;;108.60;;
16308;SDS011;8263;48.880;9.276;2023-03-14T11:06:53;117.53;;;109.72;;
16308;SDS011;8263;48.880;9.276;2023-03-14T11:09:21;115.57;;;107.95;;
16308;SDS011;8263;48.880;9.276;2023-03-14T11:11:50;114.47;;;106.88;;
16308;SDS011;8263;48.880;9.276;2023-03-14T11:14:19;113.85;;;106.35;;
16308;SDS011;8263;48.880;9.276;2023-03-14T11:16:51;114.65;;;107.05;;
16308;SDS011;8263;48.880;9.276;2023-03-14T11:22:04;112.43;;;105.03;;
16308;SDS011;8263;48.880;9.276;2023-03-14T11:24:41;115.22;;;107.63;;
16308;SDS011;8263;48.880;9.276;2023-03-14T11:27:13;116.43;;;108.72;;
16308;SDS011;8263;48.880;9.276;2023-03-14T11:29:43;115.10;;;107.50;;
16308;SDS011;8263;48.880;9.276;2023-03-14T11:32:23;111.28;;;103.97;;
16308;SDS011;8263;48.880;9.276;2023-03-14T11:34:53;114.88;;;107.28;;
16308;SDS011;8263;48.880;9.276;2023-03-14T11:37:22;116.13;;;108.43;;
16308;SDS011;8263;48.880;9.276;2023-03-14T11:39:52;116.40;;;108.70;;
16308;SDS011;8263;48.880;9.276;2023-03-14T11:42:20;115.18;;;107.57;;
16308;SDS011;8263;48.880;9.276;2023-03-14T11:44:48;114.50;;;106.95;;
16308;SDS011;8263;48.880;9.276;2023-03-14T11:47:17;115.57;;;107.93;;
16308;SDS011;8263;48.880;9.276;2023-03-14T11:49:47;114.38;;;106.85;;
16308;SDS011;8263;48.880;9.276;2023-03-14T11:52:16;113.78;;;106.28;;
16308;SDS011;8263;48.880;9.276;2023-03-14T11:54:48;115.22;;;107.63;;
16308;SDS011;8263;48.880;9.276;2023-03-14T11:57:17;115.95;;;108.25;;
16308;SDS011;8263;48.880;9.276;2023-03-14T11:59:46;115.70;;;108.05;;
16308;SDS011;8263;48.880;9.276;2023-03-14T12:02:14;116.30;;;108.60;;
16308;SDS011;8263;48.880;9.276;2023-03-14T12:04:49;114.80;;;107.20;;
16308;SDS011;8263;48.880;9.276;2023-03-14T12:07:20;115.22;;;107.63;;
16308;SDS011;8263;48.880;9.276;2023-03-14T12:09:49;113.22;;;105.75;;
16308;SDS011;8263;48.880;9.276;2023-03-14T12:12:16;113.80;;;106.30;;
16308;SDS011;8263;48.880;9.276;2023-03-14T12:14:45;114.57;;;106.97;;
16308;SDS011;8263;48.880;9.276;2023-03-14T12:17:18;113.63;;;106.13;;
16308;SDS011;8263;48.880;9.276;2023-03-14T12:19:47;115.80;;;108.10;;
16308;SDS011;8263;48.880;9.276;2023-03-14T12:22:20;115.95;;;108.25;;
16308;SDS011;8263;48.880;9.276;2023-03-14T12:24:49;115.90;;;108.22;;
16308;SDS011;8263;48.880;9.276;2023-03-14T12:29:57;115.15;;;107.55;;
16308;SDS011;8263;48.880;9.276;2023-03-14T12:32:25;114.80;;;107.20;;
16308;SDS011;8263;48.880;9.276;2023-03-14T12:34:53;115.72;;;108.03;;
16308;SDS011;8263;48.880;9.276;2023-03-14T12:37:23;115.43;;;107.72;;
16308;SDS011;8263;48.880;9.276;2023-03-14T12:40:12;115.30;;;107.45;;
16308;SDS011;8263;48.880;9.276;2023-03-14T12:42:51;116.15;;;108.45;;
16308;SDS011;8263;48.880;9.276;2023-03-14T12:45:24;117.93;;;110.07;;
16308;SDS011;8263;48.880;9.276;2023-03-14T12:50:37;119.03;;;111.10;;
16308;SDS011;8263;48.880;9.276;2023-03-14T12:53:10;115.97;;;108.28;;
16308;SDS011;8263;48.880;9.276;2023-03-14T12:55:45;118.30;;;110.40;;
16308;SDS011;8263;48.880;9.276;2023-03-14T12:58:15;118.85;;;110.90;;
16308;SDS011;8263;48.880;9.276;2023-03-14T13:00:51;116.28;;;108.53;;
16308;SDS011;8263;48.880;9.276;2023-03-14T13:03:21;120.28;;;112.20;;
16308;SDS011;8263;48.880;9.276;2023-03-14T13:05:53;119.78;;;111.78;;
16308;SDS011;8263;48.880;9.276;2023-03-14T13:08:32;119.22;;;111.22;;
16308;SDS011;8263;48.880;9.276;2023-03-14T13:11:00;119.00;;;111.03;;
16308;SDS011;8263;48.880;9.276;2023-03-14T13:13:27;117.68;;;109.82;;
16308;SDS011;8263;48.880;9.276;2023-03-14T13:15:54;118.38;;;110.47;;
16308;SDS011;8263;48.880;9.276;2023-03-14T13:18:24;118.38;;;110.45;;
16308;SDS011;8263;48.880;9.276;2023-03-14T13:20:55;119.60;;;111.57;;
16308;SDS011;8263;48.880;9.276;2023-03-14T13:23:23;118.93;;;110.93;;
16308;SDS011;8263;48.880;9.276;2023-03-14T13:25:50;119.35;;;111.35;;
16308;SDS011;8263;48.880;9.276;2023-03-14T13:28:17;120.10;;;112.00;;
16308;SDS011;8263;48.880;9.276;2023-03-14T13:30:44;117.90;;;110.00;;
16308;SDS011;8263;48.880;9.276;2023-03-14T13:33:12;117.97;;;110.15;;
16308;SDS011;8263;48.880;9.276;2023-03-14T13:35:39;117.82;;;109.95;;
16308;SDS011;8263;48.880;9.276;2023-03-14T13:38:14;118.22;;;110.32;;
16308;SDS011;8263;48.880;9.276;2023-03-14T13:40:42;117.15;;;109.35;;
16308;SDS011;8263;48.880;9.276;2023-03-14T13:43:17;117.90;;;110.03;;
16308;SDS011;8263;48.880;9.276;2023-03-14T13:45:53;120.03;;;112.00;;
16308;SDS011;8263;48.880;9.276;2023-03-14T13:48:22;116.90;;;109.10;;
16308;SDS011;8263;48.880;9.276;2023-03-14T13:50:49;117.93;;;110.05;;
16308;SDS011;8263;48.880;9.276;2023-03-14T13:53:18;117.97;;;110.07;;
16308;SDS011;8263;48.880;9.276;2023-03-14T13:55:44;118.53;;;110.63;;
16308;SDS011;8263;48.880;9.276;2023-03-14T13:58:12;119.65;;;111.65;;
16308;SDS011;8263;48.880;9.276;2023-03-14T14:00:39;118.43;;;110.53;;
16308;SDS011;8263;48.880;9.276;2023-03-14T14:03:08;117.65;;;109.82;;
16308;SDS011;8263;48.880;9.276;2023-03-14T14:05:36;119.80;;;111.80;;
16308;SDS011;8263;48.880;9.276;2023-03-14T14:08:05;118.07;;;110.22;;
16308;SDS011;8263;48.880;9.276;2023-03-14T14:10:33;118.22;;;110.32;;
16308;SDS011;8263;48.880;9.276;2023-03-14T14:13:02;118.50;;;110.57;;
16308;SDS011;8263;48.880;9.276;2023-03-14T14:15:30;119.07;;;111.15;;
16308;SDS011;8263;48.880;9.276;2023-03-14T14:17:58;116.38;;;108.63;;
16308;SDS011;8263;48.880;9.276;2023-03-14T14:20:28;118.53;;;110.63;;